createdAt,value
2022-10-29T00:00:45.382Z,46.25
2022-10-29T00:03:11.888Z,43.20
2022-10-29T00:05:38.442Z,47.25
2022-10-29T00:08:04.992Z,44.25
2022-10-29T00:10:31.723Z,47.00
2022-10-29T00:13:02.427Z,44.20
2022-10-29T00:15:28.932Z,47.75
2022-10-29T00:17:55.868Z,49.40
2022-10-29T00:20:22.623Z,47.00
2022-10-29T00:22:49.017Z,48.60
2022-10-29T00:25:15.515Z,49.00
2022-10-29T00:27:41.946Z,51.00
2022-10-29T00:30:08.751Z,49.40
2022-10-29T00:32:35.224Z,49.40
2022-10-29T00:35:01.658Z,46.50
2022-10-29T00:37:28.083Z,49.00
2022-10-29T00:39:54.493Z,49.25
2022-10-29T00:42:21.115Z,50.20
2022-10-29T00:44:47.592Z,48.00
2022-10-29T00:47:18.679Z,52.00
2022-10-29T00:49:47.092Z,49.00
2022-10-29T00:52:14.818Z,44.00
2022-10-29T00:54:43.460Z,47.50
2022-10-29T00:57:12.541Z,47.75
2022-10-29T00:59:39.811Z,47.75
2022-10-29T01:02:06.511Z,53.50
2022-10-29T01:04:34.015Z,47.40
2022-10-29T01:07:00.740Z,48.75
2022-10-29T01:09:27.173Z,51.00
2022-10-29T01:11:59.350Z,49.25
2022-10-29T01:14:44.467Z,45.00
2022-10-29T01:17:11.134Z,49.00
2022-10-29T01:19:40.229Z,48.00
2022-10-29T01:22:24.166Z,46.00
2022-10-29T01:25:08.976Z,46.25
2022-10-29T01:27:54.442Z,45.00
2022-10-29T01:30:40.693Z,46.00
2022-10-29T01:33:10.161Z,48.00
2022-10-29T01:35:55.460Z,50.75
2022-10-29T01:38:37.131Z,46.40
2022-10-29T01:41:08.724Z,48.25
2022-10-29T01:43:40.905Z,46.00
2022-10-29T01:46:14.757Z,47.33
2022-10-29T01:48:44.232Z,44.67
2022-10-29T01:51:28.448Z,49.00
2022-10-29T01:53:55.680Z,48.00
2022-10-29T01:56:22.140Z,48.50
2022-10-29T01:58:50.354Z,45.60
2022-10-29T02:01:34.869Z,49.75
2022-10-29T02:04:01.548Z,49.50
2022-10-29T02:06:46.127Z,46.00
2022-10-29T02:09:18.396Z,49.40
2022-10-29T02:11:52.702Z,53.75
2022-10-29T02:14:30.427Z,47.33
2022-10-29T02:16:56.981Z,51.00
2022-10-29T02:19:23.445Z,47.00
2022-10-29T02:21:52.985Z,46.20
2022-10-29T02:24:19.443Z,45.50
2022-10-29T02:26:45.853Z,50.50
2022-10-29T02:29:12.311Z,47.00
2022-10-29T02:31:38.741Z,47.50
2022-10-29T02:34:05.148Z,50.25
2022-10-29T02:36:31.604Z,44.80
2022-10-29T02:38:58.019Z,48.00
2022-10-29T02:41:24.431Z,48.50
2022-10-29T02:43:50.958Z,48.75
2022-10-29T02:46:18.921Z,46.60
2022-10-29T02:48:45.385Z,49.75
2022-10-29T02:51:11.852Z,49.25
2022-10-29T02:53:38.692Z,48.75
2022-10-29T02:56:05.985Z,48.75
2022-10-29T02:58:32.608Z,47.00
2022-10-29T03:00:59.161Z,45.00
2022-10-29T03:03:25.682Z,46.75
2022-10-29T03:05:52.507Z,43.75
2022-10-29T03:08:18.886Z,46.60
2022-10-29T03:10:45.531Z,47.75
2022-10-29T03:13:12.014Z,45.00
2022-10-29T03:15:38.474Z,48.20
2022-10-29T03:18:05.479Z,50.25
2022-10-29T03:20:31.894Z,48.75
2022-10-29T03:22:58.304Z,43.25
2022-10-29T03:25:24.728Z,46.00
2022-10-29T03:27:51.141Z,44.80
2022-10-29T03:30:17.875Z,47.00
2022-10-29T03:32:44.986Z,45.60
2022-10-29T03:35:12.178Z,47.40
2022-10-29T03:37:38.649Z,41.20
2022-10-29T03:40:05.319Z,42.00
2022-10-29T03:42:31.723Z,48.00
2022-10-29T03:44:58.644Z,44.50
2022-10-29T03:47:25.365Z,42.50
2022-10-29T03:49:51.771Z,43.00
2022-10-29T03:52:18.206Z,40.50
2022-10-29T03:54:44.620Z,49.00
2022-10-29T03:57:11.078Z,47.50
2022-10-29T03:59:37.531Z,48.75
2022-10-29T04:02:04.062Z,47.50
2022-10-29T04:04:30.558Z,47.00
2022-10-29T04:06:56.991Z,46.75
2022-10-29T04:09:23.429Z,45.75
2022-10-29T04:11:49.892Z,44.60
2022-10-29T04:14:16.553Z,47.00
2022-10-29T04:16:43.105Z,47.20
2022-10-29T04:19:09.552Z,45.50
2022-10-29T04:28:17.966Z,51.50
2022-10-29T04:29:55.247Z,51.40
2022-10-29T04:32:21.649Z,48.75
2022-10-29T04:34:48.087Z,50.25
2022-10-29T04:37:14.510Z,49.00
2022-10-29T04:39:40.928Z,45.00
2022-10-29T04:42:07.336Z,47.75
2022-10-29T04:44:33.740Z,50.25
2022-10-29T04:47:00.196Z,46.75
2022-10-29T04:49:26.697Z,45.50
2022-10-29T04:51:53.157Z,49.00
2022-10-29T04:54:19.571Z,47.40
2022-10-29T04:56:46.025Z,48.25
2022-10-29T04:59:12.470Z,43.00
2022-10-29T05:01:38.995Z,42.00
2022-10-29T05:04:05.526Z,44.50
2022-10-29T05:06:31.925Z,46.60
2022-10-29T05:08:58.320Z,45.75
2022-10-29T05:11:24.772Z,45.00
2022-10-29T05:13:51.272Z,41.80
2022-10-29T05:16:18.008Z,49.60
2022-10-29T05:18:44.432Z,47.60
2022-10-29T05:21:10.842Z,47.00
2022-10-29T05:23:37.243Z,46.33
2022-10-29T05:26:03.997Z,47.60
2022-10-29T05:28:30.426Z,44.60
2022-10-29T05:31:00.130Z,41.75
2022-10-29T05:33:26.583Z,45.25
2022-10-29T05:35:52.988Z,39.60
2022-10-29T05:38:19.455Z,43.00
2022-10-29T05:40:45.986Z,38.00
2022-10-29T05:43:12.815Z,40.50
2022-10-29T05:45:39.499Z,47.00
2022-10-29T05:48:06.077Z,44.75
2022-10-29T05:50:33.502Z,45.00
2022-10-29T05:53:01.347Z,41.50
2022-10-29T05:55:28.393Z,45.50
2022-10-29T05:57:58.503Z,45.00
2022-10-29T06:00:25.780Z,41.50
2022-10-29T06:02:52.367Z,47.00
2022-10-29T06:05:19.106Z,40.50
2022-10-29T06:07:45.576Z,39.50
2022-10-29T06:10:11.989Z,44.25
2022-10-29T06:12:38.417Z,31.25
2022-10-29T06:15:05.270Z,36.00
2022-10-29T06:17:31.662Z,35.00
2022-10-29T06:19:58.061Z,34.80
2022-10-29T06:22:24.577Z,33.60
2022-10-29T06:24:51.026Z,35.00
2022-10-29T06:27:17.445Z,36.00
2022-10-29T06:29:43.877Z,35.00
2022-10-29T06:32:10.330Z,31.60
2022-10-29T06:34:36.718Z,33.25
2022-10-29T06:37:03.114Z,33.00
2022-10-29T06:39:29.520Z,31.00
2022-10-29T06:41:55.916Z,31.00
2022-10-29T06:44:22.353Z,35.00
2022-10-29T06:46:48.780Z,40.00
2022-10-29T06:49:15.249Z,39.60
2022-10-29T06:51:41.690Z,33.00
2022-10-29T06:54:08.226Z,37.00
2022-10-29T06:56:34.734Z,29.00
2022-10-29T06:59:01.230Z,30.20
2022-10-29T07:01:31.588Z,26.00
2022-10-29T07:03:58.411Z,29.50
2022-10-29T07:06:24.861Z,36.50
2022-10-29T07:08:51.324Z,30.00
2022-10-29T07:11:17.872Z,29.50
2022-10-29T07:13:44.323Z,32.25
2022-10-29T07:16:10.753Z,35.00
2022-10-29T07:18:37.216Z,37.25
2022-10-29T07:21:04.074Z,34.00
2022-10-29T07:26:02.209Z,30.50
2022-10-29T07:28:28.653Z,28.20
2022-10-29T07:30:58.992Z,29.75
2022-10-29T07:33:25.429Z,23.00
2022-10-29T07:35:51.825Z,33.25
2022-10-29T07:38:18.291Z,28.20
2022-10-29T07:40:49.616Z,30.50
2022-10-29T07:43:18.908Z,30.00
2022-10-29T07:45:46.228Z,25.75
2022-10-29T07:48:12.645Z,29.00
2022-10-29T07:50:39.104Z,28.00
2022-10-29T07:53:06.585Z,31.20
2022-10-29T07:55:33.025Z,30.75
2022-10-29T07:58:04.170Z,34.00
2022-10-29T08:00:31.462Z,37.25
2022-10-29T08:02:58.146Z,25.40
2022-10-29T08:05:25.327Z,26.00
2022-10-29T08:07:55.726Z,31.60
2022-10-29T08:10:23.207Z,31.00
2022-10-29T08:12:53.832Z,27.20
2022-10-29T08:15:20.677Z,32.25
2022-10-29T08:17:47.131Z,37.20
2022-10-29T08:20:14.278Z,29.25
2022-10-29T08:22:41.014Z,26.80
2022-10-29T08:25:07.695Z,31.00
2022-10-29T08:27:34.160Z,26.00
2022-10-29T08:30:00.596Z,29.00
2022-10-29T08:32:27.016Z,22.40
2022-10-29T08:34:53.641Z,26.00
2022-10-29T08:37:20.063Z,24.75
2022-10-29T08:39:46.498Z,25.00
2022-10-29T08:42:23.637Z,24.50
2022-10-29T08:44:50.055Z,20.00
2022-10-29T08:47:20.677Z,26.75
2022-10-29T08:49:53.382Z,28.00
2022-10-29T08:52:24.140Z,23.40
2022-10-29T08:54:54.114Z,19.60
2022-10-29T08:57:23.554Z,29.00
2022-10-29T09:00:06.017Z,22.20
2022-10-29T09:02:32.664Z,23.50
2022-10-29T09:04:59.487Z,24.60
2022-10-29T09:07:38.072Z,26.00
2022-10-29T09:10:11.816Z,27.25
2022-10-29T09:12:38.278Z,22.40
2022-10-29T09:15:16.785Z,24.50
2022-10-29T09:17:55.545Z,24.00
2022-10-29T09:20:45.275Z,27.60
2022-10-29T09:23:17.783Z,28.00
2022-10-29T09:25:44.202Z,18.00
2022-10-29T09:28:16.811Z,26.50
2022-10-29T09:30:51.066Z,26.00
2022-10-29T09:33:20.202Z,17.00
2022-10-29T09:35:48.541Z,23.00
2022-10-29T09:38:14.925Z,23.00
2022-10-29T09:40:43.190Z,26.20
2022-10-29T09:43:28.499Z,19.50
2022-10-29T09:46:05.269Z,21.00
2022-10-29T09:48:37.485Z,22.20
2022-10-29T09:51:06.990Z,21.00
2022-10-29T09:53:33.540Z,21.60
2022-10-29T09:56:00.134Z,23.40
2022-10-29T09:58:27.573Z,21.80
2022-10-29T10:00:54.785Z,24.60
2022-10-29T10:03:34.015Z,19.60
2022-10-29T10:06:04.805Z,25.00
2022-10-29T10:08:31.749Z,21.40
2022-10-29T10:11:02.147Z,25.50
2022-10-29T10:13:31.714Z,21.80
2022-10-29T10:15:59.627Z,21.00
2022-10-29T10:18:46.305Z,19.50
2022-10-29T10:21:14.274Z,20.00
2022-10-29T10:23:40.794Z,21.40
2022-10-29T10:26:27.165Z,21.50
2022-10-29T10:29:12.218Z,24.00
2022-10-29T10:31:39.528Z,24.50
2022-10-29T10:34:25.631Z,22.50
2022-10-29T10:36:52.194Z,24.00
2022-10-29T10:39:26.788Z,26.00
2022-10-29T10:41:54.276Z,24.50
2022-10-29T10:44:22.033Z,27.80
2022-10-29T10:46:49.838Z,18.00
2022-10-29T10:49:17.736Z,24.80
2022-10-29T10:51:45.109Z,23.80
2022-10-29T10:54:31.844Z,20.80
2022-10-29T10:56:58.368Z,22.50
2022-10-29T10:59:27.393Z,25.00
2022-10-29T11:01:54.806Z,22.60
2022-10-29T11:04:25.017Z,19.40
2022-10-29T11:06:53.144Z,21.00
2022-10-29T11:09:30.504Z,20.33
2022-10-29T11:12:13.602Z,26.60
2022-10-29T11:14:44.938Z,18.75
2022-10-29T11:17:27.119Z,22.00
2022-10-29T11:19:56.395Z,22.80
2022-10-29T11:22:35.130Z,22.40
2022-10-29T11:25:19.399Z,17.00
2022-10-29T11:27:51.891Z,21.00
2022-10-29T11:30:19.444Z,18.60
2022-10-29T11:32:48.834Z,18.00
2022-10-29T11:35:18.621Z,22.25
2022-10-29T11:38:05.311Z,24.25
2022-10-29T11:40:34.751Z,20.20
2022-10-29T11:43:08.464Z,21.00
2022-10-29T11:45:35.734Z,18.80
2022-10-29T11:48:26.115Z,21.80
2022-10-29T11:51:11.034Z,22.50
2022-10-29T11:53:40.469Z,19.00
2022-10-29T11:56:18.917Z,17.40
2022-10-29T11:58:48.450Z,17.40
2022-10-29T12:01:38.255Z,26.50
2022-10-29T12:04:27.089Z,20.00
2022-10-29T12:07:10.483Z,22.60
2022-10-29T12:09:56.906Z,21.00
2022-10-29T12:12:38.638Z,18.20
2022-10-29T12:15:14.202Z,23.20
2022-10-29T12:17:58.461Z,21.60
2022-10-29T12:20:31.127Z,22.50
2022-10-29T12:23:16.196Z,23.75
2022-10-29T12:26:03.018Z,25.50
2022-10-29T12:28:35.551Z,23.00
2022-10-29T12:31:05.000Z,21.25
2022-10-29T12:33:37.902Z,20.20
2022-10-29T12:36:28.628Z,25.40
2022-10-29T12:38:58.314Z,17.60
2022-10-29T12:41:32.876Z,26.00
2022-10-29T12:44:03.868Z,16.20
2022-10-29T12:46:39.731Z,20.00
2022-10-29T12:49:06.158Z,21.25
2022-10-29T12:51:42.999Z,21.25
2022-10-29T12:54:09.449Z,24.00
2022-10-29T12:56:36.235Z,17.00
2022-10-29T12:59:21.564Z,20.33
2022-10-29T13:04:34.752Z,20.00
2022-10-29T13:07:03.826Z,19.00
2022-10-29T13:09:32.322Z,23.50
2022-10-29T13:12:00.159Z,22.00
2022-10-29T13:14:32.453Z,21.00
2022-10-29T13:17:01.203Z,24.00
2022-10-29T13:19:30.665Z,20.40
2022-10-29T13:21:58.413Z,20.40
2022-10-29T13:24:25.910Z,15.50
2022-10-29T13:26:53.780Z,24.20
2022-10-29T13:29:38.986Z,18.00
2022-10-29T13:32:06.046Z,21.00
2022-10-29T13:34:55.191Z,21.00
2022-10-29T13:37:40.512Z,23.75
2022-10-29T13:40:33.026Z,16.00
2022-10-29T13:42:59.655Z,16.75
2022-10-29T13:45:26.441Z,19.80
2022-10-29T13:47:57.590Z,18.25
2022-10-29T13:50:23.974Z,19.00
2022-10-29T13:52:53.455Z,19.00
2022-10-29T13:55:20.854Z,21.40
2022-10-29T13:57:47.225Z,19.75
2022-10-29T14:00:13.685Z,26.50
2022-10-29T14:02:40.232Z,19.80
2022-10-29T14:05:09.424Z,16.25
2022-10-29T14:07:42.238Z,22.25
2022-10-29T14:10:16.974Z,19.60
2022-10-29T14:12:43.881Z,17.00
2022-10-29T14:15:11.324Z,17.00
2022-10-29T14:17:37.894Z,19.75
2022-10-29T14:20:04.573Z,20.50
2022-10-29T14:22:31.644Z,18.00
2022-10-29T14:24:58.100Z,20.00
2022-10-29T14:27:24.739Z,23.00
2022-10-29T14:29:53.134Z,18.00
2022-10-29T14:32:22.680Z,20.00
2022-10-29T14:34:49.921Z,20.25
2022-10-29T14:37:16.309Z,21.00
2022-10-29T14:39:58.238Z,18.20
2022-10-29T14:42:40.270Z,21.00
2022-10-29T14:45:22.809Z,19.50
2022-10-29T14:47:51.489Z,21.33
2022-10-29T14:50:20.495Z,24.20
2022-10-29T14:52:53.360Z,23.40
2022-10-29T14:55:25.095Z,20.60
2022-10-29T14:58:11.869Z,27.40
2022-10-29T15:00:39.330Z,23.80
2022-10-29T15:03:07.118Z,20.20
2022-10-29T15:05:36.080Z,22.00
2022-10-29T15:08:11.623Z,22.40
2022-10-29T15:10:45.930Z,29.40
2022-10-29T15:13:35.444Z,20.20
2022-10-29T15:16:01.881Z,27.75
2022-10-29T15:18:28.843Z,20.80
2022-10-29T15:20:55.806Z,24.75
2022-10-29T15:23:29.931Z,18.80
2022-10-29T15:26:04.194Z,24.00
2022-10-29T15:28:36.957Z,27.00
2022-10-29T15:31:04.025Z,30.00
2022-10-29T15:33:31.700Z,23.40
2022-10-29T15:36:02.236Z,26.00
2022-10-29T15:38:32.755Z,23.00
2022-10-29T15:41:08.131Z,30.50
2022-10-29T15:43:35.829Z,25.00
2022-10-29T15:46:03.767Z,21.80
2022-10-29T15:48:37.446Z,26.60
2022-10-29T15:51:04.353Z,29.25
2022-10-29T15:53:30.805Z,32.50
2022-10-29T15:55:58.263Z,29.00
2022-10-29T15:58:24.734Z,27.40
2022-10-29T16:00:51.644Z,28.00
2022-10-29T16:03:22.713Z,28.00
2022-10-29T16:05:50.519Z,27.50
2022-10-29T16:08:28.625Z,29.60
2022-10-29T16:10:56.047Z,33.00
2022-10-29T16:13:23.219Z,26.00
2022-10-29T16:15:49.869Z,28.25
2022-10-29T16:18:16.295Z,28.00
2022-10-29T16:20:42.770Z,27.00
2022-10-29T16:23:09.875Z,34.40
2022-10-29T16:25:36.294Z,33.00
2022-10-29T16:28:02.729Z,26.50
2022-10-29T16:30:29.868Z,27.00
2022-10-29T16:32:56.931Z,29.40
2022-10-29T16:35:24.602Z,26.75
2022-10-29T16:37:51.665Z,28.80
2022-10-29T16:40:18.593Z,28.00
2022-10-29T16:42:45.131Z,28.50
2022-10-29T16:45:16.124Z,27.00
2022-10-29T16:47:42.985Z,31.00
2022-10-29T16:50:19.911Z,34.75
2022-10-29T16:52:46.348Z,32.75
2022-10-29T16:55:13.240Z,35.50
2022-10-29T16:57:40.014Z,34.50
2022-10-29T17:00:07.201Z,30.60
2022-10-29T17:02:33.801Z,33.00
2022-10-29T17:05:00.271Z,29.20
2022-10-29T17:07:26.707Z,31.00
2022-10-29T17:09:53.129Z,32.20
2022-10-29T17:12:19.527Z,29.50
2022-10-29T17:14:46.094Z,30.60
2022-10-29T17:17:12.515Z,28.75
2022-10-29T17:19:38.942Z,33.00
2022-10-29T17:22:05.811Z,30.25
2022-10-29T17:24:32.225Z,32.40
2022-10-29T17:26:58.895Z,30.40
2022-10-29T17:29:25.336Z,33.00
2022-10-29T17:31:52.855Z,30.00
2022-10-29T17:34:19.386Z,32.00
2022-10-29T17:36:46.571Z,37.50
2022-10-29T17:39:12.995Z,28.25
2022-10-29T17:41:39.513Z,33.00
2022-10-29T17:44:06.074Z,31.33
2022-10-29T17:46:32.573Z,39.25
2022-10-29T17:48:59.108Z,34.75
2022-10-29T17:51:25.617Z,29.60
2022-10-29T17:53:52.081Z,32.00
2022-10-29T17:56:18.554Z,35.00
2022-10-29T17:58:44.982Z,36.00
2022-10-29T18:01:11.701Z,34.25
2022-10-29T18:03:38.266Z,37.40
2022-10-29T18:06:06.290Z,40.25
2022-10-29T18:08:33.080Z,35.60
2022-10-29T18:11:10.226Z,42.50
2022-10-29T18:13:42.014Z,32.80
2022-10-29T18:16:09.188Z,33.00
2022-10-29T18:18:48.074Z,36.20
2022-10-29T18:21:24.247Z,31.50
2022-10-29T18:23:50.849Z,34.75
2022-10-29T18:26:24.959Z,35.00
2022-10-29T18:28:52.240Z,36.75
2022-10-29T18:31:18.998Z,34.00
2022-10-29T18:33:45.417Z,31.40
2022-10-29T18:36:12.167Z,27.00
2022-10-29T18:38:39.020Z,28.60
2022-10-29T18:41:05.674Z,30.00
2022-10-29T18:43:32.608Z,37.20
2022-10-29T18:46:00.521Z,37.25
2022-10-29T18:48:27.351Z,41.40
2022-10-29T18:50:54.621Z,34.80
2022-10-29T18:53:21.100Z,35.80
2022-10-29T18:55:51.540Z,35.00
2022-10-29T18:58:18.318Z,35.50
2022-10-29T19:00:44.901Z,30.75
2022-10-29T19:03:11.502Z,49.60
2022-10-29T19:05:38.072Z,50.00
2022-10-29T19:08:05.648Z,51.25
2022-10-29T19:10:34.903Z,47.00
2022-10-29T19:13:01.340Z,49.60
2022-10-29T19:15:27.774Z,42.00
2022-10-29T19:17:54.657Z,43.00
2022-10-29T19:20:21.303Z,40.40
2022-10-29T19:22:47.993Z,47.00
2022-10-29T19:25:14.474Z,45.80
2022-10-29T19:27:40.897Z,43.60
2022-10-29T19:30:10.219Z,34.80
2022-10-29T19:32:36.689Z,39.20
2022-10-29T19:35:03.142Z,40.80
2022-10-29T19:37:29.545Z,40.00
2022-10-29T19:39:56.039Z,36.00
2022-10-29T19:42:22.523Z,42.00
2022-10-29T19:44:52.167Z,37.60
2022-10-29T19:47:21.898Z,41.60
2022-10-29T19:49:48.314Z,42.20
2022-10-29T19:52:14.880Z,51.00
2022-10-29T19:54:41.321Z,50.50
2022-10-29T19:57:07.749Z,49.50
2022-10-29T19:59:34.146Z,48.60
2022-10-29T20:02:00.730Z,46.75
2022-10-29T20:04:27.305Z,49.40
2022-10-29T20:06:53.716Z,45.00
2022-10-29T20:09:20.147Z,44.50
2022-10-29T20:11:46.573Z,43.00
2022-10-29T20:14:12.981Z,39.60
2022-10-29T20:16:40.511Z,39.80
2022-10-29T20:19:07.241Z,41.50
2022-10-29T20:21:33.674Z,32.75
2022-10-29T20:24:00.112Z,37.00
2022-10-29T20:26:26.617Z,41.80
2022-10-29T20:28:53.076Z,34.40
2022-10-29T20:31:19.496Z,38.20
2022-10-29T20:33:49.184Z,37.50
2022-10-29T20:36:15.672Z,42.50
2022-10-29T20:38:42.260Z,30.00
2022-10-29T20:41:08.708Z,36.80
2022-10-29T20:43:35.176Z,36.00
2022-10-29T20:46:02.031Z,37.20
2022-10-29T20:48:28.963Z,38.00
2022-10-29T20:50:55.714Z,35.00
2022-10-29T20:53:22.207Z,36.00
2022-10-29T20:55:52.086Z,38.60
2022-10-29T20:58:18.761Z,40.00
2022-10-29T21:00:45.228Z,41.00
2022-10-29T21:03:12.850Z,37.50
2022-10-29T21:05:39.486Z,38.50
2022-10-29T21:08:06.071Z,42.00
2022-10-29T21:10:32.588Z,42.50
2022-10-29T21:13:02.384Z,41.60
2022-10-29T21:15:28.810Z,40.00
2022-10-29T21:17:55.305Z,42.40
2022-10-29T21:20:21.738Z,40.00
2022-10-29T21:22:48.186Z,41.00
2022-10-29T21:25:14.632Z,39.00
2022-10-29T21:27:41.037Z,38.80
2022-10-29T21:30:07.855Z,47.40
2022-10-29T21:32:34.252Z,41.60
2022-10-29T21:35:00.681Z,45.40
2022-10-29T21:37:27.143Z,44.60
2022-10-29T21:39:53.547Z,39.00
2022-10-29T21:42:19.978Z,43.50
2022-10-29T21:44:46.418Z,41.50
2022-10-29T21:47:12.841Z,44.80
2022-10-29T21:49:39.318Z,44.00
2022-10-29T21:52:05.737Z,50.20
2022-10-29T21:54:32.140Z,46.40
2022-10-29T21:56:58.570Z,44.00
2022-10-29T21:59:25.032Z,40.00
2022-10-29T22:01:51.524Z,46.60
2022-10-29T22:04:18.013Z,42.50
2022-10-29T22:06:44.531Z,47.20
2022-10-29T22:09:11.922Z,44.75
2022-10-29T22:11:38.305Z,45.00
2022-10-29T22:14:04.708Z,45.00
2022-10-29T22:16:31.083Z,50.20
2022-10-29T22:18:57.490Z,43.25
2022-10-29T22:21:25.557Z,42.00
2022-10-29T22:23:52.945Z,45.25
2022-10-29T22:26:20.888Z,39.60
2022-10-29T22:28:47.664Z,40.00
2022-10-29T22:31:15.084Z,44.00
2022-10-29T22:33:42.261Z,43.75
2022-10-29T22:36:08.909Z,48.25
2022-10-29T22:38:35.710Z,49.00
2022-10-29T22:41:09.885Z,47.75
2022-10-29T22:43:36.373Z,41.60
2022-10-29T22:46:03.357Z,39.33
2022-10-29T22:48:29.810Z,42.75
2022-10-29T22:51:06.690Z,41.00
2022-10-29T22:53:33.453Z,45.00
2022-10-29T22:56:01.242Z,42.75
2022-10-29T22:58:28.055Z,38.25
2022-10-29T23:01:05.175Z,36.25
2022-10-29T23:03:32.056Z,41.00
2022-10-29T23:05:59.155Z,38.00
2022-10-29T23:08:25.619Z,36.75
2022-10-29T23:10:52.116Z,45.50
2022-10-29T23:13:18.574Z,32.75
2022-10-29T23:15:48.490Z,45.20
2022-10-29T23:18:15.027Z,39.75
2022-10-29T23:20:41.606Z,40.40
2022-10-29T23:23:08.080Z,44.00
2022-10-29T23:25:34.511Z,43.50
2022-10-29T23:28:00.906Z,37.50
2022-10-29T23:30:27.335Z,39.20
2022-10-29T23:32:53.756Z,34.20
2022-10-29T23:35:20.224Z,40.25
2022-10-29T23:37:46.656Z,38.50
2022-10-29T23:40:13.051Z,44.00
2022-10-29T23:42:39.457Z,41.75
2022-10-29T23:45:07.777Z,37.75
2022-10-29T23:47:34.352Z,32.00
2022-10-29T23:50:00.835Z,39.80
2022-10-29T23:52:27.247Z,36.00
2022-10-29T23:54:53.668Z,29.00
2022-10-29T23:57:20.086Z,40.00
2022-10-29T23:59:46.621Z,32.00
